Weather History for K1H2 - December, 2013

Change the Weather History Date:

Friday, December 6, 2013

  Actual Average (KMTO) Record (KMTO)
Temperature  
Mean Temperature 20 °F 34 °F  
Max Temperature 23 °F 41 °F 70 °F (1998)
Min Temperature 17 °F 27 °F 0 °F (1977)
Degree Days  
Heating Degree Days 45 31  
Month to date heating degree days 179  
Since 1 July heating degree days 1238  
Cooling Degree Days 0 0  
Month to date cooling degree days 0  
Year to date cooling degree days 1057  
Moisture  
Dew Point 12 °F    
Average Humidity 66    
Maximum Humidity 80    
Minimum Humidity 58    
Precipitation  
Precipitation 0.00 in 0.09 in 0.84 in (1950)
Month to date precipitation 0.55  
Year to date precipitation 35.83  
Sea Level Pressure  
Sea Level Pressure 30.36 in    
Wind  
Wind Speed 9 mph (NNW)    
Max Wind Speed 15 mph    
Max Gust Speed 18 mph    
Visibility 9 miles    
Events Snow    
T = Trace of Precipitation, MM = Missing Value Source: NWS Daily Summary

Daily Weather History Graph

Daily Weather History Graph

Search for Another Location

Airport or City:

Trip Planner

Search our weather history database for the weather conditions in past years. The results will help you decide how hot, cold, wet, or windy it might be!

Date:

Astronomy

Dec. 06, 2013 Rise Set
Actual Time 6:59 AM CST 4:31 PM CST
Civil Twilight 6:29 AM CST 5:01 PM CST
Nautical Twilight 5:56 AM CST 5:34 PM CST
Astronomical Twilight 5:23 AM CST 6:06 PM CST
Moon 10:05 AM CST (12/6) 9:01 PM CST (12/6)
Length of Visible Light 10h 31m
Length of Day
9h 32m
Waxing Crescent, 19% of the Moon is Illuminated
Dec 6
Waxing Crescent
Dec 9
First Quarter
Dec 17
Full
Dec 25
Last Quarter
Jan 1
New

Hourly Weather History & Observations

Time (CST) Temp. Windchill Dew Point Humidity Pressure Visibility Wind Dir Wind Speed Gust Speed Precip Events Conditions
12:15 AM 23.0 °F 14.7 °F 17.6 °F 80% 30.26 in 7.0 mi NNW 6.9 mph - N/A Snow Light Snow
12:35 AM 23.0 °F 13.1 °F 17.1 °F 78% 30.26 in 10.0 mi NNW 9.2 mph - N/A Snow Light Snow
12:55 AM 22.8 °F 13.6 °F 17.1 °F 79% 30.24 in 7.0 mi NNW 8.1 mph - N/A Snow Light Snow
1:15 AM 22.8 °F 12.9 °F 17.4 °F 80% 30.26 in 7.0 mi NNW 9.2 mph - N/A Snow Light Snow
1:35 AM 23.0 °F 15.8 °F 17.1 °F 78% 30.27 in 10.0 mi NNW 5.8 mph - N/A Snow Light Snow
1:55 AM 23.4 °F 16.2 °F 16.5 °F 75% 30.28 in 10.0 mi NW 5.8 mph - N/A Snow Light Snow
2:15 AM 23.5 °F 15.4 °F 16.5 °F 75% 30.29 in 10.0 mi NW 6.9 mph - N/A   Overcast
2:35 AM 23.7 °F 16.6 °F 16.5 °F 74% 30.29 in 10.0 mi NW 5.8 mph - N/A   Overcast
2:55 AM 23.9 °F 18.0 °F 16.0 °F 72% 30.26 in 10.0 mi North 4.6 mph - N/A Snow Light Snow
3:15 AM 23.9 °F 14.2 °F 13.6 °F 65% 30.26 in 10.0 mi North 9.2 mph - N/A Snow Light Snow
3:35 AM 23.9 °F 14.2 °F 13.3 °F 64% 30.27 in 10.0 mi NNW 9.2 mph - N/A Snow Light Snow
3:55 AM 23.9 °F 14.2 °F 13.8 °F 65% 30.25 in 10.0 mi NNW 9.2 mph - N/A   Overcast
4:15 AM 23.9 °F 12.9 °F 13.3 °F 64% 30.27 in 10.0 mi NNW 11.5 mph 16.1 mph N/A   Overcast
4:35 AM 23.9 °F 12.9 °F 13.6 °F 65% 30.26 in 10.0 mi North 11.5 mph - N/A   Overcast
4:55 AM 23.7 °F 14.7 °F 13.1 °F 64% 30.28 in 10.0 mi NNW 8.1 mph - N/A   Overcast
5:35 AM 23.7 °F 14.7 °F 13.8 °F 66% 30.28 in 10.0 mi North 8.1 mph - N/A   Overcast
5:55 AM 23.7 °F 14.0 °F 13.6 °F 65% 30.29 in 10.0 mi North 9.2 mph - N/A   Overcast
6:15 AM 23.4 °F 12.2 °F 12.6 °F 63% 30.30 in 10.0 mi NNW 11.5 mph - N/A   Overcast
6:35 AM 23.4 °F 13.5 °F 11.8 °F 61% 30.32 in 10.0 mi North 9.2 mph - N/A   Overcast
6:55 AM 23.4 °F 14.3 °F 12.2 °F 62% 30.31 in 10.0 mi North 8.1 mph - N/A   Overcast
7:15 AM 23.4 °F 15.2 °F 12.9 °F 64% 30.30 in 10.0 mi North 6.9 mph - N/A   Overcast
7:35 AM 23.2 °F 12.6 °F 12.6 °F 64% 30.31 in 10.0 mi North 10.4 mph - N/A   Overcast
7:55 AM 23.4 °F 13.5 °F 13.1 °F 65% 30.33 in 10.0 mi North 9.2 mph - N/A   Overcast
8:15 AM 23.4 °F 11.1 °F 12.4 °F 63% 30.34 in 10.0 mi North 13.8 mph - N/A   Overcast
8:35 AM 23.4 °F 13.5 °F 12.9 °F 64% 30.34 in 10.0 mi North 9.2 mph - N/A   Overcast
8:55 AM 23.2 °F 15.0 °F 12.4 °F 63% 30.33 in 10.0 mi North 6.9 mph - N/A   Overcast
9:15 AM 23.0 °F 11.7 °F 12.9 °F 65% 30.34 in 10.0 mi North 11.5 mph - N/A   Overcast
9:35 AM 23.4 °F 15.2 °F 13.3 °F 65% 30.36 in 10.0 mi North 6.9 mph - N/A   Overcast
9:55 AM 23.2 °F 12.6 °F 12.7 °F 64% 30.36 in 10.0 mi North 10.4 mph - N/A   Overcast
10:15 AM 23.5 °F 13.7 °F 12.9 °F 64% 30.36 in 10.0 mi North 9.2 mph - N/A   Overcast
10:35 AM 23.5 °F 13.7 °F 13.1 °F 64% 30.34 in 10.0 mi North 9.2 mph - N/A Snow Light Snow
10:55 AM 23.5 °F 13.0 °F 12.7 °F 63% 30.34 in 10.0 mi North 10.4 mph - N/A Snow Light Snow
11:15 AM 23.5 °F 13.7 °F 12.9 °F 64% 30.35 in 10.0 mi North 9.2 mph - N/A Snow Light Snow
11:35 AM 23.4 °F 14.3 °F 13.3 °F 65% 30.34 in 7.0 mi NNW 8.1 mph - N/A Snow Light Snow
11:55 AM 23.5 °F 13.0 °F 13.3 °F 65% 30.33 in 10.0 mi North 10.4 mph - N/A Snow Light Snow
12:15 PM 23.4 °F 11.6 °F 13.1 °F 65% 30.33 in 5.0 mi North 12.7 mph 18.4 mph N/A Snow Light Snow
12:35 PM 23.0 °F 11.7 °F 13.8 °F 68% 30.34 in 3.0 mi North 11.5 mph 18.4 mph N/A Snow Light Snow
12:55 PM 23.4 °F 12.2 °F 13.8 °F 67% 30.33 in 4.0 mi NNW 11.5 mph 16.1 mph N/A Snow Light Snow
1:15 PM 23.0 °F 11.7 °F 14.0 °F 68% 30.31 in 3.0 mi North 11.5 mph 16.1 mph N/A Snow Light Snow
1:35 PM 23.2 °F 13.3 °F 13.3 °F 66% 30.31 in 7.0 mi NNW 9.2 mph 16.1 mph N/A Snow Light Snow
1:55 PM 23.0 °F 11.7 °F 13.5 °F 67% 30.33 in 4.0 mi North 11.5 mph 18.4 mph N/A Snow Light Snow
2:15 PM 22.8 °F 12.2 °F 13.8 °F 68% 30.34 in 7.0 mi NNW 10.4 mph - N/A Snow Light Snow
2:35 PM 22.6 °F 11.9 °F 14.0 °F 69% 30.33 in 4.0 mi North 10.4 mph 16.1 mph N/A Snow Light Snow
2:55 PM 22.5 °F 11.1 °F 14.2 °F 71% 30.33 in 4.0 mi NNW 11.5 mph - N/A Snow Light Snow
3:15 PM 22.5 °F 11.1 °F 14.7 °F 72% 30.37 in 3.0 mi NNW 11.5 mph - N/A Snow Light Snow
3:35 PM 21.9 °F 11.7 °F 14.9 °F 74% 30.35 in 1.5 mi North 9.2 mph - N/A Snow Light Snow
3:55 PM 21.6 °F 10.6 °F 14.9 °F 76% 30.37 in 1.2 mi North 10.4 mph - N/A Snow Light Snow
4:15 PM 21.6 °F 12.1 °F 14.7 °F 75% 30.41 in 2.5 mi NNW 8.1 mph - N/A Snow Light Snow
4:35 PM 21.7 °F 10.8 °F 13.6 °F 71% 30.40 in 10.0 mi NNW 10.4 mph - N/A Snow Light Snow
5:55 PM 22.1 °F 11.3 °F 10.4 °F 61% 30.41 in 10.0 mi NNW 10.4 mph - N/A   Overcast
6:15 PM 22.1 °F 8.9 °F 10.9 °F 62% 30.42 in 10.0 mi NNW 15.0 mph 18.4 mph N/A   Overcast
6:35 PM 21.6 °F 9.3 °F 10.2 °F 62% 30.43 in 10.0 mi NNW 12.7 mph 17.3 mph N/A   Overcast
6:55 PM 21.6 °F 9.9 °F 10.2 °F 62% 30.43 in 10.0 mi NNW 11.5 mph 16.1 mph N/A   Overcast
7:15 PM 21.2 °F 10.9 °F 10.4 °F 63% 30.44 in 10.0 mi North 9.2 mph 16.1 mph N/A   Overcast
7:35 PM 21.0 °F 9.3 °F 9.7 °F 62% 30.45 in 10.0 mi NNW 11.5 mph - N/A   Overcast
7:55 PM 20.8 °F 9.7 °F 9.0 °F 60% 30.47 in 10.0 mi NNW 10.4 mph - N/A   Overcast
8:15 PM 20.8 °F 11.2 °F 9.1 °F 61% 30.48 in 10.0 mi NNW 8.1 mph - N/A   Overcast
8:35 PM 20.8 °F 9.7 °F 8.6 °F 59% 30.48 in 10.0 mi NNW 10.4 mph - N/A   Overcast
8:55 PM 20.5 °F 8.6 °F 8.2 °F 59% 30.48 in 10.0 mi NNW 11.5 mph 17.3 mph N/A   Overcast
9:15 PM 20.3 °F 6.6 °F 7.9 °F 59% 30.50 in 10.0 mi NNW 15.0 mph 18.4 mph N/A   Overcast
9:35 PM 20.1 °F 8.8 °F 8.1 °F 60% 30.51 in 10.0 mi NNW 10.4 mph 18.4 mph N/A   Overcast
9:55 PM 19.4 °F 7.2 °F 7.5 °F 60% 30.51 in 10.0 mi North 11.5 mph - N/A   Overcast
10:15 PM 19.4 °F 8.6 °F 7.5 °F 60% 30.52 in 10.0 mi North 9.2 mph - N/A   Overcast
10:35 PM 19.0 °F 10.0 °F 7.3 °F 60% 30.53 in 10.0 mi North 6.9 mph - N/A   Overcast
10:55 PM 18.5 °F 6.8 °F 7.5 °F 62% 30.53 in 10.0 mi NNW 10.4 mph - N/A   Overcast
11:15 PM 18.3 °F 5.2 °F 6.8 °F 61% 30.54 in 10.0 mi NNW 12.7 mph 18.4 mph N/A   Overcast
11:35 PM 17.6 °F 6.4 °F 5.7 °F 60% 30.54 in 10.0 mi North 9.2 mph - N/A   Overcast
11:55 PM 17.2 °F 6.8 °F 4.8 °F 58% 30.55 in 10.0 mi North 8.1 mph - N/A   Overcast